Winning Pioneer 30 — V7WT6 — position and weather

sailwx.info

Track history (hours):
 
Tides and Currents Weather Stations Pressure Air Temp Water Temp Dewpoint Dewpoint Depression Visibility Wind Speed Wind Dir Waves Ship Positions

Winning Pioneer 30

Last reported at 2018-Jan-28 18:52 UTC. Time now 2018-Feb-19 08:12 UTC.
Position N 10°24' W 014°46'.
Warning: this ship's position is 21 days out of date.

Length 34 m.

Type: . MMSI: 538007110.

Date/timePositionNaut miles runAvg speedWind from/ knotsBaromVisibWave heightAir tempDewpointWater temp
2018-Jan-28 18:52N 10°24' W 014°46'  
2018-Jan-24 14:06N 10°23' W 014°45'0 0.0
2018-Jan-24 13:58N 10°23' W 014°45'0 0.0
2018-Jan-24 13:30N 10°23' W 014°45'1 0.1
2018-Jan-24 08:58N 10°23' W 014°45'0 0.0
2018-Jan-24 04:57N 10°23' W 014°45'0 0.0
2018-Jan-24 04:30N 10°23' W 014°45'0 0.0
2018-Jan-24 03:47N 10°23' W 014°45'0 0.0
2018-Jan-24 01:21N 10°23' W 014°45'10 0.3
2018-Jan-22 16:48N 10°32' W 014°43'5 4.4
2018-Jan-22 15:45N 10°28' W 014°45'5 3.9
2018-Jan-22 14:30N 10°23' W 014°46'1 0.1
2018-Jan-22 02:11N 10°25' W 014°47'0 0.2
2018-Jan-22 02:00N 10°25' W 014°47'  
Track history (hours):
 
Tides and Currents Weather Stations Pressure Air Temp Water Temp Dewpoint Dewpoint Depression Visibility Wind Speed Wind Dir Waves Ship Positions

Winning Pioneer 30

Last reported at 2018-Jan-28 18:52 UTC. Time now 2018-Feb-19 08:12 UTC.
Position N 10°24' W 014°46'.
Warning: this ship's position is 21 days out of date.

Length 34 m.

Type: . MMSI: 538007110.

Date/timePositionNaut miles runAvg speedWind from/ knotsBaromVisibWave heightAir tempDewpointWater temp
2018-Jan-28 18:52N 10°24' W 014°46'  
2018-Jan-24 14:06N 10°23' W 014°45'0 0.0
2018-Jan-24 13:58N 10°23' W 014°45'0 0.0
2018-Jan-24 13:30N 10°23' W 014°45'1 0.1
2018-Jan-24 08:58N 10°23' W 014°45'0 0.0
2018-Jan-24 04:57N 10°23' W 014°45'0 0.0
2018-Jan-24 04:30N 10°23' W 014°45'0 0.0
2018-Jan-24 03:47N 10°23' W 014°45'0 0.0
2018-Jan-24 01:21N 10°23' W 014°45'10 0.3
2018-Jan-22 16:48N 10°32' W 014°43'5 4.4
2018-Jan-22 15:45N 10°28' W 014°45'5 3.9
2018-Jan-22 14:30N 10°23' W 014°46'1 0.1
2018-Jan-22 02:11N 10°25' W 014°47'0 0.2
2018-Jan-22 02:00N 10°25' W 014°47'  

Dump ship's entire track history